sensor_id;sensor_type;location;lat;lon;timestamp;temperature;humidity
32187;DHT22;18686;53.084;8.872;2023-07-02T00:00:20;15.50;99.90
32187;DHT22;18686;53.084;8.872;2023-07-02T00:02:48;15.50;99.90
32187;DHT22;18686;53.084;8.872;2023-07-02T00:05:17;15.50;99.90
32187;DHT22;18686;53.084;8.872;2023-07-02T00:07:45;15.50;99.90
32187;DHT22;18686;53.084;8.872;2023-07-02T00:10:13;15.50;99.90
32187;DHT22;18686;53.084;8.872;2023-07-02T00:12:41;15.50;99.90
32187;DHT22;18686;53.084;8.872;2023-07-02T00:15:11;15.40;99.90
32187;DHT22;18686;53.084;8.872;2023-07-02T00:17:41;15.40;99.90
32187;DHT22;18686;53.084;8.872;2023-07-02T00:20:10;15.30;99.90
32187;DHT22;18686;53.084;8.872;2023-07-02T00:22:42;15.30;99.90
32187;DHT22;18686;53.084;8.872;2023-07-02T00:25:13;15.20;99.90
32187;DHT22;18686;53.084;8.872;2023-07-02T00:27:41;15.20;99.90
32187;DHT22;18686;53.084;8.872;2023-07-02T00:30:10;15.20;99.90
32187;DHT22;18686;53.084;8.872;2023-07-02T00:32:38;15.20;99.90
32187;DHT22;18686;53.084;8.872;2023-07-02T00:35:08;15.20;99.90
32187;DHT22;18686;53.084;8.872;2023-07-02T00:37:36;15.20;99.90
32187;DHT22;18686;53.084;8.872;2023-07-02T00:40:06;15.20;99.90
32187;DHT22;18686;53.084;8.872;2023-07-02T00:42:34;15.20;99.90
32187;DHT22;18686;53.084;8.872;2023-07-02T00:45:03;15.30;99.90
32187;DHT22;18686;53.084;8.872;2023-07-02T00:47:33;15.30;99.90
32187;DHT22;18686;53.084;8.872;2023-07-02T00:50:02;15.30;99.90
32187;DHT22;18686;53.084;8.872;2023-07-02T00:52:32;15.30;99.90
32187;DHT22;18686;53.084;8.872;2023-07-02T00:55:00;15.30;99.90
32187;DHT22;18686;53.084;8.872;2023-07-02T00:57:28;15.30;99.90
32187;DHT22;18686;53.084;8.872;2023-07-02T00:59:57;15.40;99.90
32187;DHT22;18686;53.084;8.872;2023-07-02T01:02:26;15.40;99.90
32187;DHT22;18686;53.084;8.872;2023-07-02T01:04:57;15.40;99.90
32187;DHT22;18686;53.084;8.872;2023-07-02T01:07:28;15.40;99.90
32187;DHT22;18686;53.084;8.872;2023-07-02T01:09:58;15.40;99.90
32187;DHT22;18686;53.084;8.872;2023-07-02T01:12:26;15.50;99.90
32187;DHT22;18686;53.084;8.872;2023-07-02T01:14:58;15.50;99.90
32187;DHT22;18686;53.084;8.872;2023-07-02T01:17:32;15.50;99.90
32187;DHT22;18686;53.084;8.872;2023-07-02T01:20:12;15.50;99.90
32187;DHT22;18686;53.084;8.872;2023-07-02T01:22:41;15.50;99.90
32187;DHT22;18686;53.084;8.872;2023-07-02T01:25:09;15.50;99.90
32187;DHT22;18686;53.084;8.872;2023-07-02T01:27:37;15.50;99.90
32187;DHT22;18686;53.084;8.872;2023-07-02T01:30:07;15.60;99.90
32187;DHT22;18686;53.084;8.872;2023-07-02T01:32:37;15.60;99.90
32187;DHT22;18686;53.084;8.872;2023-07-02T01:35:07;15.60;99.90
32187;DHT22;18686;53.084;8.872;2023-07-02T01:37:37;15.60;99.90
32187;DHT22;18686;53.084;8.872;2023-07-02T01:40:07;15.60;99.90
32187;DHT22;18686;53.084;8.872;2023-07-02T01:42:37;15.60;99.90
32187;DHT22;18686;53.084;8.872;2023-07-02T01:45:06;15.60;99.90
32187;DHT22;18686;53.084;8.872;2023-07-02T01:47:34;15.60;99.90
32187;DHT22;18686;53.084;8.872;2023-07-02T01:50:04;15.70;99.90
32187;DHT22;18686;53.084;8.872;2023-07-02T01:52:34;15.70;99.90
32187;DHT22;18686;53.084;8.872;2023-07-02T01:55:04;15.70;99.90
32187;DHT22;18686;53.084;8.872;2023-07-02T01:57:32;15.70;99.90
32187;DHT22;18686;53.084;8.872;2023-07-02T02:00:01;15.60;99.90
32187;DHT22;18686;53.084;8.872;2023-07-02T02:02:42;15.60;99.90
32187;DHT22;18686;53.084;8.872;2023-07-02T02:05:10;15.60;99.90
32187;DHT22;18686;53.084;8.872;2023-07-02T02:07:39;15.50;99.90
32187;DHT22;18686;53.084;8.872;2023-07-02T02:10:10;15.50;99.90
32187;DHT22;18686;53.084;8.872;2023-07-02T02:12:38;15.50;99.90
32187;DHT22;18686;53.084;8.872;2023-07-02T02:15:07;15.50;99.90
32187;DHT22;18686;53.084;8.872;2023-07-02T02:17:35;15.40;99.90
32187;DHT22;18686;53.084;8.872;2023-07-02T02:20:06;15.40;99.90
32187;DHT22;18686;53.084;8.872;2023-07-02T02:22:35;15.40;99.90
32187;DHT22;18686;53.084;8.872;2023-07-02T02:25:04;15.30;99.90
32187;DHT22;18686;53.084;8.872;2023-07-02T02:27:34;15.20;99.90
32187;DHT22;18686;53.084;8.872;2023-07-02T02:30:03;15.20;99.90
32187;DHT22;18686;53.084;8.872;2023-07-02T02:32:33;15.10;99.90
32187;DHT22;18686;53.084;8.872;2023-07-02T02:35:02;15.00;99.90
32187;DHT22;18686;53.084;8.872;2023-07-02T02:37:33;15.00;99.90
32187;DHT22;18686;53.084;8.872;2023-07-02T02:40:02;15.00;99.90
32187;DHT22;18686;53.084;8.872;2023-07-02T02:42:34;15.00;99.90
32187;DHT22;18686;53.084;8.872;2023-07-02T02:45:04;15.00;99.90
32187;DHT22;18686;53.084;8.872;2023-07-02T02:47:33;15.00;99.90
32187;DHT22;18686;53.084;8.872;2023-07-02T02:50:02;15.00;99.90
32187;DHT22;18686;53.084;8.872;2023-07-02T02:52:30;15.10;99.90
32187;DHT22;18686;53.084;8.872;2023-07-02T02:54:59;15.10;99.90
32187;DHT22;18686;53.084;8.872;2023-07-02T02:57:27;15.00;99.90
32187;DHT22;18686;53.084;8.872;2023-07-02T02:59:57;15.00;99.90
32187;DHT22;18686;53.084;8.872;2023-07-02T03:02:25;15.10;99.90
32187;DHT22;18686;53.084;8.872;2023-07-02T03:04:54;15.10;99.90
32187;DHT22;18686;53.084;8.872;2023-07-02T03:07:24;15.10;99.90
32187;DHT22;18686;53.084;8.872;2023-07-02T03:09:52;15.10;99.90
32187;DHT22;18686;53.084;8.872;2023-07-02T03:12:21;15.10;99.90
32187;DHT22;18686;53.084;8.872;2023-07-02T03:14:53;15.20;99.90
32187;DHT22;18686;53.084;8.872;2023-07-02T03:17:24;15.20;99.90
32187;DHT22;18686;53.084;8.872;2023-07-02T03:19:52;15.20;99.90
32187;DHT22;18686;53.084;8.872;2023-07-02T03:22:21;15.20;99.90
32187;DHT22;18686;53.084;8.872;2023-07-02T03:24:49;15.20;99.90
32187;DHT22;18686;53.084;8.872;2023-07-02T03:27:17;15.10;99.90
32187;DHT22;18686;53.084;8.872;2023-07-02T03:29:45;15.10;99.90
32187;DHT22;18686;53.084;8.872;2023-07-02T03:32:13;15.00;99.90
32187;DHT22;18686;53.084;8.872;2023-07-02T03:34:43;15.00;99.90
32187;DHT22;18686;53.084;8.872;2023-07-02T03:37:11;15.00;99.90
32187;DHT22;18686;53.084;8.872;2023-07-02T03:39:39;14.90;99.90
32187;DHT22;18686;53.084;8.872;2023-07-02T03:42:08;14.90;99.90
32187;DHT22;18686;53.084;8.872;2023-07-02T03:44:36;14.90;99.90
32187;DHT22;18686;53.084;8.872;2023-07-02T03:47:05;14.90;99.90
32187;DHT22;18686;53.084;8.872;2023-07-02T03:49:35;14.80;99.90
32187;DHT22;18686;53.084;8.872;2023-07-02T03:52:05;14.80;99.90
32187;DHT22;18686;53.084;8.872;2023-07-02T03:54:33;14.80;99.90
32187;DHT22;18686;53.084;8.872;2023-07-02T03:57:01;14.80;99.90
32187;DHT22;18686;53.084;8.872;2023-07-02T03:59:30;14.70;99.90
32187;DHT22;18686;53.084;8.872;2023-07-02T04:01:58;14.70;99.90
32187;DHT22;18686;53.084;8.872;2023-07-02T04:04:26;14.70;99.90
32187;DHT22;18686;53.084;8.872;2023-07-02T04:06:55;14.60;99.90
32187;DHT22;18686;53.084;8.872;2023-07-02T04:09:24;14.60;99.90
32187;DHT22;18686;53.084;8.872;2023-07-02T04:11:52;14.60;99.90
32187;DHT22;18686;53.084;8.872;2023-07-02T04:14:20;14.60;99.90
32187;DHT22;18686;53.084;8.872;2023-07-02T04:16:49;14.60;99.90
32187;DHT22;18686;53.084;8.872;2023-07-02T04:19:17;14.60;99.90
32187;DHT22;18686;53.084;8.872;2023-07-02T04:21:45;14.60;99.90
32187;DHT22;18686;53.084;8.872;2023-07-02T04:24:13;14.70;99.90
32187;DHT22;18686;53.084;8.872;2023-07-02T04:26:44;14.70;99.90
32187;DHT22;18686;53.084;8.872;2023-07-02T04:29:32;14.80;99.90
32187;DHT22;18686;53.084;8.872;2023-07-02T04:32:01;14.80;99.90
32187;DHT22;18686;53.084;8.872;2023-07-02T04:34:29;14.80;99.90
32187;DHT22;18686;53.084;8.872;2023-07-02T04:36:57;14.80;99.90
32187;DHT22;18686;53.084;8.872;2023-07-02T04:39:25;14.80;99.90
32187;DHT22;18686;53.084;8.872;2023-07-02T04:41:55;14.80;99.90
32187;DHT22;18686;53.084;8.872;2023-07-02T04:44:23;14.80;99.90
32187;DHT22;18686;53.084;8.872;2023-07-02T04:46:57;14.90;99.90
32187;DHT22;18686;53.084;8.872;2023-07-02T04:49:25;14.90;99.90
32187;DHT22;18686;53.084;8.872;2023-07-02T04:51:54;14.90;99.90
32187;DHT22;18686;53.084;8.872;2023-07-02T04:54:22;15.00;99.90
32187;DHT22;18686;53.084;8.872;2023-07-02T04:56:50;15.00;99.90
32187;DHT22;18686;53.084;8.872;2023-07-02T04:59:21;15.10;99.90
32187;DHT22;18686;53.084;8.872;2023-07-02T05:01:49;15.10;99.90
32187;DHT22;18686;53.084;8.872;2023-07-02T05:04:18;15.20;99.90
32187;DHT22;18686;53.084;8.872;2023-07-02T05:06:46;15.30;99.90
32187;DHT22;18686;53.084;8.872;2023-07-02T05:09:14;15.30;99.90
32187;DHT22;18686;53.084;8.872;2023-07-02T05:11:42;15.40;99.90
32187;DHT22;18686;53.084;8.872;2023-07-02T05:14:10;15.50;99.90
32187;DHT22;18686;53.084;8.872;2023-07-02T05:16:40;15.50;99.90
32187;DHT22;18686;53.084;8.872;2023-07-02T05:19:08;15.60;99.90
32187;DHT22;18686;53.084;8.872;2023-07-02T05:21:37;15.60;99.90
32187;DHT22;18686;53.084;8.872;2023-07-02T05:24:05;15.70;99.90
32187;DHT22;18686;53.084;8.872;2023-07-02T05:26:34;15.70;99.90
32187;DHT22;18686;53.084;8.872;2023-07-02T05:29:05;15.80;99.90
32187;DHT22;18686;53.084;8.872;2023-07-02T05:31:33;15.90;99.90
32187;DHT22;18686;53.084;8.872;2023-07-02T05:34:03;16.00;99.90
32187;DHT22;18686;53.084;8.872;2023-07-02T05:36:31;16.10;99.90
32187;DHT22;18686;53.084;8.872;2023-07-02T05:39:01;16.10;99.90
32187;DHT22;18686;53.084;8.872;2023-07-02T05:41:29;16.20;99.90
32187;DHT22;18686;53.084;8.872;2023-07-02T05:43:58;16.30;99.90
32187;DHT22;18686;53.084;8.872;2023-07-02T05:46:26;16.40;99.90
32187;DHT22;18686;53.084;8.872;2023-07-02T05:48:54;16.50;99.90
32187;DHT22;18686;53.084;8.872;2023-07-02T05:51:25;16.50;99.90
32187;DHT22;18686;53.084;8.872;2023-07-02T05:53:54;16.60;99.90
32187;DHT22;18686;53.084;8.872;2023-07-02T05:56:22;16.70;99.90
32187;DHT22;18686;53.084;8.872;2023-07-02T05:58:50;16.80;99.90
32187;DHT22;18686;53.084;8.872;2023-07-02T06:01:18;16.90;99.90
32187;DHT22;18686;53.084;8.872;2023-07-02T06:03:49;16.90;99.90
32187;DHT22;18686;53.084;8.872;2023-07-02T06:06:18;17.00;99.90
32187;DHT22;18686;53.084;8.872;2023-07-02T06:08:47;17.00;99.90
32187;DHT22;18686;53.084;8.872;2023-07-02T06:11:16;17.10;99.90
32187;DHT22;18686;53.084;8.872;2023-07-02T06:13:44;17.20;99.90
32187;DHT22;18686;53.084;8.872;2023-07-02T06:16:12;17.20;99.90
32187;DHT22;18686;53.084;8.872;2023-07-02T06:18:40;17.30;99.90
32187;DHT22;18686;53.084;8.872;2023-07-02T06:21:09;17.40;99.90
32187;DHT22;18686;53.084;8.872;2023-07-02T06:23:41;17.50;99.90
32187;DHT22;18686;53.084;8.872;2023-07-02T06:26:11;17.60;99.90
32187;DHT22;18686;53.084;8.872;2023-07-02T06:28:39;17.70;99.90
32187;DHT22;18686;53.084;8.872;2023-07-02T06:31:07;17.70;99.90
32187;DHT22;18686;53.084;8.872;2023-07-02T06:33:39;17.80;99.90
32187;DHT22;18686;53.084;8.872;2023-07-02T06:36:07;17.90;99.90
32187;DHT22;18686;53.084;8.872;2023-07-02T06:38:39;18.00;99.90
32187;DHT22;18686;53.084;8.872;2023-07-02T06:41:07;18.10;99.90
32187;DHT22;18686;53.084;8.872;2023-07-02T06:43:37;18.30;99.90
32187;DHT22;18686;53.084;8.872;2023-07-02T06:46:05;18.50;99.90
32187;DHT22;18686;53.084;8.872;2023-07-02T06:48:33;18.70;99.90
32187;DHT22;18686;53.084;8.872;2023-07-02T06:51:01;18.80;99.90
32187;DHT22;18686;53.084;8.872;2023-07-02T06:53:30;18.80;99.30
32187;DHT22;18686;53.084;8.872;2023-07-02T06:55:58;19.00;99.50
32187;DHT22;18686;53.084;8.872;2023-07-02T06:58:26;19.10;99.00
32187;DHT22;18686;53.084;8.872;2023-07-02T07:00:55;19.20;99.40
32187;DHT22;18686;53.084;8.872;2023-07-02T07:03:24;19.20;98.60
32187;DHT22;18686;53.084;8.872;2023-07-02T07:05:52;19.20;99.10
32187;DHT22;18686;53.084;8.872;2023-07-02T07:08:20;19.20;98.20
